Lord Nelson — GHJV — position and weather

sailwx.info

Track history (hours):
 
Tides and Currents Weather Stations Pressure Air Temp Water Temp Dewpoint Dewpoint Depression Visibility Wind Speed Wind Dir Waves Ship Positions

Lord Nelson (United Kingdom)

Ship's website: http://www.jst.org.uk/

Last reported at 2018-May-24 13:00 UTC. Time now 2018-May-24 15:58 UTC.
Position N 53°54' W 004°48'.

Length 54.7 m; beam 9 m; draft 4.1 m.

Type: Sailing vessel. MMSI: 232003690.

Wind from 060 at 19 knots

Barometer 1023.2 mb
Air temperature 12.0 ° C
Visibility: greater than 5.4 NM
Dewpoint 9.2 ° C

Date/timePositionNaut miles runAvg speedWind from/ knotsBaromVisibWave heightAir tempDewpointWater temp
2018-May-24 13:00N 53°54' W 004°48'   060 / 191023.2 5.4 12.0 9.2
2018-May-21 17:23N 54°11' W 005°01'3 7.4
2018-May-21 17:00N 54°14' W 005°04'3 7.1
2018-May-21 16:30N 54°17' W 005°07'4 7.2
2018-May-21 16:01N 54°20' W 005°10'4 7.2
2018-May-21 15:30N 54°23' W 005°13'3 6.9
2018-May-21 15:01N 54°26' W 005°15'4 7.3
2018-May-21 14:30N 54°29' W 005°19'4 8.0
2018-May-21 14:01N 54°33' W 005°22'4 8.3
2018-May-21 13:30N 54°36' W 005°25'4 8.1
2018-May-21 13:01N 54°40' W 005°27'3 6.8
2018-May-21 12:30N 54°43' W 005°31'4 7.4
2018-May-21 12:00N 54°41' W 005°38'3 5.8
2018-May-21 11:30N 54°41' W 005°43'1 2.3
2018-May-21 11:00N 54°41' W 005°44'1 2.5
2018-May-21 10:30N 54°41' W 005°47'2 3.4
2018-May-21 10:00N 54°40' W 005°49'3 6.6
2018-May-21 09:30N 54°38' W 005°53'2 3.9
2018-May-21 09:00N 54°36' W 005°55'0 0.0
2018-May-21 08:30N 54°36' W 005°55'0 0.0
2018-May-21 08:00N 54°36' W 005°55'0 0.0
2018-May-21 07:30N 54°36' W 005°55'0 0.0
2018-May-21 07:00N 54°36' W 005°55'0 0.0
2018-May-21 06:30N 54°36' W 005°55'0 0.0
2018-May-21 06:00N 54°36' W 005°55'0 0.0
2018-May-21 05:30N 54°36' W 005°55'0 0.0
2018-May-21 05:00N 54°36' W 005°55'0 0.0
2018-May-21 04:30N 54°36' W 005°55'0 0.0
2018-May-21 04:00N 54°36' W 005°55'0 0.0
2018-May-21 03:30N 54°36' W 005°55'0 0.0
2018-May-21 03:00N 54°36' W 005°55'0 0.0
2018-May-21 02:30N 54°36' W 005°55'0 0.0
2018-May-21 02:00N 54°36' W 005°55'0 0.0
2018-May-21 01:30N 54°36' W 005°55'0 0.0
2018-May-21 01:00N 54°36' W 005°55'0 0.0
2018-May-21 00:30N 54°36' W 005°55'0 0.0
2018-May-21 00:00N 54°36' W 005°55'0 0.0
2018-May-20 23:30N 54°36' W 005°55'0 0.0
2018-May-20 22:57N 54°36' W 005°55'0 0.0
2018-May-20 22:30N 54°36' W 005°55'0 0.0
2018-May-20 22:00N 54°36' W 005°55'0 0.0
2018-May-20 21:27N 54°36' W 005°55'0 0.0
2018-May-20 21:00N 54°36' W 005°55'0 0.0
2018-May-20 20:30N 54°36' W 005°55'0 0.0
2018-May-20 19:57N 54°36' W 005°55'0 0.0
2018-May-20 19:30N 54°36' W 005°55'0 0.0
2018-May-20 19:00N 54°36' W 005°55'0 0.0
2018-May-20 18:30N 54°36' W 005°55'0 0.0
2018-May-20 17:57N 54°36' W 005°55'0 0.0
2018-May-20 17:30N 54°36' W 005°55'0 0.0
2018-May-20 17:00N 54°36' W 005°55'0 0.0
2018-May-20 16:30N 54°36' W 005°55'0 0.0
2018-May-20 16:00N 54°36' W 005°55'0 0.0
2018-May-20 15:30N 54°36' W 005°55'0 0.0
2018-May-20 14:57N 54°36' W 005°55'0 0.0
2018-May-20 14:30N 54°36' W 005°55'0 0.0
2018-May-20 14:00N 54°36' W 005°55'0 0.0
2018-May-20 13:29N 54°36' W 005°55'0 0.0
2018-May-20 13:00N 54°36' W 005°55'0 0.0
2018-May-20 12:30N 54°36' W 005°55'0 0.0
2018-May-20 12:00N 54°36' W 005°55'0 0.0
2018-May-20 11:29N 54°36' W 005°55'0 0.0
2018-May-20 10:59N 54°36' W 005°55'0 0.0
2018-May-20 10:29N 54°36' W 005°55'0 0.0
2018-May-20 09:59N 54°36' W 005°55'0 0.0
2018-May-20 09:29N 54°36' W 005°55'0 0.0
2018-May-20 08:59N 54°36' W 005°55'0 0.0
2018-May-20 08:29N 54°36' W 005°55'0 0.0
2018-May-20 07:59N 54°36' W 005°55'0 0.0
2018-May-20 07:29N 54°36' W 005°55'0 0.0
2018-May-20 06:59N 54°36' W 005°55'0 0.0
2018-May-20 06:29N 54°36' W 005°55'0 0.0
2018-May-20 05:59N 54°36' W 005°55'0 0.0
2018-May-20 05:29N 54°36' W 005°55'0 0.0
2018-May-20 04:59N 54°36' W 005°55'0 0.0
2018-May-20 04:29N 54°36' W 005°55'0 0.0
2018-May-20 03:56N 54°36' W 005°55'0 0.0
2018-May-20 03:29N 54°36' W 005°55'0 0.0
2018-May-20 02:59N 54°36' W 005°55'0 0.0
2018-May-20 02:29N 54°36' W 005°55'0 0.0
2018-May-20 01:59N 54°36' W 005°55'0 0.0
2018-May-20 01:29N 54°36' W 005°55'0 0.0
2018-May-20 00:59N 54°36' W 005°55'0 0.0
2018-May-20 00:29N 54°36' W 005°55'0 0.0
2018-May-19 23:59N 54°36' W 005°55'0 0.0
2018-May-19 23:29N 54°36' W 005°55'0 0.0
2018-May-19 22:59N 54°36' W 005°55'0 0.0
2018-May-19 22:29N 54°36' W 005°55'0 0.0
2018-May-19 21:59N 54°36' W 005°55'0 0.0
2018-May-19 21:26N 54°36' W 005°55'0 0.0
2018-May-19 20:56N 54°36' W 005°55'0 0.0
2018-May-19 20:29N 54°36' W 005°55'0 0.0
2018-May-19 19:59N 54°36' W 005°55'0 0.0
2018-May-19 19:29N 54°36' W 005°55'0 0.0
2018-May-19 18:59N 54°36' W 005°55'0 0.0
2018-May-19 18:29N 54°36' W 005°55'0 0.0
2018-May-19 17:59N 54°36' W 005°55'0 0.0
2018-May-19 17:29N 54°36' W 005°55'0 0.0
2018-May-19 16:59N 54°36' W 005°55'0 0.0
2018-May-19 16:26N 54°36' W 005°55'0 0.0
2018-May-19 15:59N 54°36' W 005°55'0 0.0
2018-May-19 15:29N 54°36' W 005°55'0 0.0
2018-May-19 14:44N 54°36' W 005°55'0 0.0
2018-May-19 14:29N 54°36' W 005°55'0 0.0
2018-May-19 13:59N 54°36' W 005°55'0 0.0
2018-May-19 13:29N 54°36' W 005°55'0 0.0
2018-May-19 12:59N 54°36' W 005°55'0 0.0
2018-May-19 12:29N 54°36' W 005°55'0 0.0
2018-May-19 11:59N 54°36' W 005°55'0 0.0
2018-May-19 11:29N 54°36' W 005°55'0 0.0
2018-May-19 10:59N 54°36' W 005°55'0 0.0
2018-May-19 10:29N 54°36' W 005°55'0 0.0
2018-May-19 09:59N 54°36' W 005°55'0 0.0
2018-May-19 09:29N 54°36' W 005°55'0 0.0
2018-May-19 08:59N 54°36' W 005°55'0 0.0
2018-May-19 08:29N 54°36' W 005°55'0 0.0
2018-May-19 07:59N 54°36' W 005°55'0 0.0
2018-May-19 07:29N 54°36' W 005°55'0 0.0
2018-May-19 06:59N 54°36' W 005°55'0 0.0
2018-May-19 06:29N 54°36' W 005°55'0 0.0
2018-May-19 05:59N 54°36' W 005°55'0 0.0
2018-May-19 05:26N 54°36' W 005°55'0 0.0
2018-May-19 04:59N 54°36' W 005°55'0 0.0
2018-May-19 04:22N 54°36' W 005°55'0 0.0
2018-May-19 03:55N 54°36' W 005°55'0 0.0
2018-May-19 03:28N 54°36' W 005°55'0 0.0
2018-May-19 02:59N 54°36' W 005°55'0 0.0
2018-May-19 02:25N 54°36' W 005°55'0 0.0
2018-May-19 01:55N 54°36' W 005°55'0 0.0
2018-May-19 01:28N 54°36' W 005°55'0 0.0
2018-May-19 00:55N 54°36' W 005°55'0 0.0
2018-May-19 00:25N 54°36' W 005°55'0 0.0
2018-May-18 23:55N 54°36' W 005°55'0 0.0
2018-May-18 23:28N 54°36' W 005°55'0 0.0
2018-May-18 22:55N 54°36' W 005°55'0 0.0
2018-May-18 22:25N 54°36' W 005°55'0 0.0
2018-May-18 21:58N 54°36' W 005°55'0 0.0
2018-May-18 21:28N 54°36' W 005°55'0 0.0
2018-May-18 20:55N 54°36' W 005°55'0 0.0
2018-May-18 20:28N 54°36' W 005°55'0 0.0
2018-May-18 19:58N 54°36' W 005°55'0 0.0
2018-May-18 19:28N 54°36' W 005°55'0 0.0
2018-May-18 18:58N 54°36' W 005°55'0 0.0
2018-May-18 18:28N 54°36' W 005°55'0 0.0
2018-May-18 17:58N 54°36' W 005°55'0 0.0
2018-May-18 17:25N 54°36' W 005°55'0 0.0
2018-May-18 16:58N 54°36' W 005°55'0 0.0
2018-May-18 16:28N 54°36' W 005°55'0 0.0
2018-May-18 15:58N 54°36' W 005°55'0 0.0
2018-May-18 15:28N 54°36' W 005°55'0 0.0
2018-May-18 14:55N 54°36' W 005°55'0 0.0
2018-May-18 14:28N 54°36' W 005°55'0 0.0
2018-May-18 13:58N 54°36' W 005°55'0 0.0
2018-May-18 13:28N 54°36' W 005°55'0 0.0
2018-May-18 12:58N 54°36' W 005°55'0 0.0
2018-May-18 12:28N 54°36' W 005°55'0 0.0
2018-May-18 11:58N 54°36' W 005°55'0 0.0
2018-May-18 11:28N 54°36' W 005°55'0 0.0
2018-May-18 11:00N 54°36' W 005°55'0 0.1
2018-May-18 10:30N 54°36' W 005°55'2 4.6
2018-May-18 09:58N 54°38' W 005°52'3 6.9
2018-May-18 09:30N 54°41' W 005°49'4 7.7
2018-May-18 09:00N 54°42' W 005°43'4 7.5
2018-May-18 08:30N 54°45' W 005°38'4 7.1
2018-May-18 08:00N 54°47' W 005°34'1 2.0
2018-May-18 07:30N 54°47' W 005°32'3 5.2
2018-May-18 07:00N 54°44' W 005°33'1 2.3
2018-May-18 06:30N 54°44' W 005°31'1 2.7
2018-May-18 06:01N 54°44' W 005°29'1 1.9
2018-May-18 05:30N 54°44' W 005°28'3 5.6
2018-May-18 05:00N 54°41' W 005°25'3 6.4
2018-May-18 04:30N 54°39' W 005°22'4 7.0
2018-May-18 04:00N 54°35' W 005°19'4 7.6
2018-May-18 03:30N 54°32' W 005°17'4 7.4
2018-May-18 03:00N 54°28' W 005°16'4 7.7
2018-May-18 02:30N 54°24' W 005°16'4 7.7
2018-May-18 02:00N 54°21' W 005°17'4251.9
2018-May-18 02:00N 54°18' W 005°12'3 6.3 1025.727.0 9.6 7.5 9.0
2018-May-18 01:30N 54°17' W 005°17'4 7.2
2018-May-18 01:00N 54°13' W 005°18'4 7.1
2018-May-18 00:30N 54°10' W 005°19'4 7.3
2018-May-18 00:00N 54°06' W 005°20'4 7.1
2018-May-17 23:30N 54°03' W 005°21'4 7.4
2018-May-17 23:00N 53°59' W 005°22'5 7.5
2018-May-17 22:23N 53°55' W 005°23'3 7.7
2018-May-17 22:00N 53°52' W 005°24'4 7.8
2018-May-17 21:30N 53°48' W 005°25'4 7.8
2018-May-17 20:57N 53°44' W 005°27'5 7.7
2018-May-17 20:17N 53°39' W 005°28'2 7.4
2018-May-17 20:00N 53°37' W 005°29'6 6.8
2018-May-17 19:05N 53°30' W 005°30'2 6.0
2018-May-17 18:47N 53°29' W 005°30'2 5.7
2018-May-17 18:29N 53°27' W 005°31'2 5.2
2018-May-17 18:00N 53°25' W 005°33'3 5.3
2018-May-17 17:30N 53°22' W 005°33'4 5.0
2018-May-17 16:44N 53°18' W 005°34'1 4.8
2018-May-17 16:28N 53°17' W 005°34'3 4.6
2018-May-17 15:53N 53°14' W 005°34'2 4.1
2018-May-17 15:30N 53°13' W 005°34'2 4.1
2018-May-17 15:00N 53°11' W 005°34'2 3.9
2018-May-17 14:30N 53°09' W 005°34'2 4.0
2018-May-17 14:00N 53°07' W 005°34'2 4.6
2018-May-17 13:28N 53°04' W 005°34'2 5.1
2018-May-17 13:00N 53°02' W 005°35'3 5.2
2018-May-17 12:30N 52°59' W 005°36'3 6.2
2018-May-17 12:00N 52°56' W 005°36'4 7.2
2018-May-17 11:30N 52°53' W 005°37'4 8.2
2018-May-17 11:00N 52°49' W 005°39'3 6.2
2018-May-17 10:30N 52°46' W 005°39'2 3.9
2018-May-17 10:00N 52°44' W 005°40'3 4.8
2018-May-17 09:28N 52°41' W 005°40'60 1.9
2018-May-16 02:00N 51°48' W 006°24'11 4.0 360 / 171028.610.8 10.4 7.510.3
2018-May-15 23:15N 51°55' W 006°37'1 5.0
2018-May-15 23:00N 51°56' W 006°39'2 5.0
2018-May-15 22:30N 51°56' W 006°43'3 5.1
2018-May-15 22:00N 51°56' W 006°47'2 4.4
2018-May-15 21:30N 51°56' W 006°51'2 4.7
2018-May-15 21:00N 51°56' W 006°54'2 4.9
2018-May-15 20:30N 51°55' W 006°58'3 6.4
2018-May-15 20:00N 51°55' W 007°04'4 7.1
2018-May-15 19:30N 51°55' W 007°09'4 7.1
2018-May-15 19:00N 51°55' W 007°15'3 6.8
2018-May-15 18:30N 51°54' W 007°20'3 6.7
2018-May-15 18:00N 51°53' W 007°26'3 6.2
2018-May-15 17:30N 51°52' W 007°30'3 6.5
2018-May-15 17:00N 51°51' W 007°35'3 5.6
2018-May-15 16:30N 51°50' W 007°39'3 6.0
2018-May-15 16:00N 51°49' W 007°44'3 6.8
2018-May-15 15:30N 51°48' W 007°49'2 5.0
2018-May-15 15:00N 51°47' W 007°53'2 3.8
2018-May-15 14:30N 51°47' W 007°56'4 7.2
2018-May-15 14:00N 51°46' W 008°02'4 7.1
2018-May-15 13:30N 51°45' W 008°07'3 6.9
2018-May-15 13:00N 51°46' W 008°13'3 5.7
2018-May-15 12:30N 51°48' W 008°16'3 5.6
2018-May-15 12:00N 51°51' W 008°17'2 4.0
2018-May-15 11:30N 51°52' W 008°20'3 7.0
2018-May-15 11:00N 51°54' W 008°24'2 3.5
2018-May-15 10:26N 51°54' W 008°28'0 0.0
2018-May-15 09:59N 51°54' W 008°28'0 0.0
2018-May-15 09:23N 51°54' W 008°28'0 0.0
2018-May-15 08:56N 51°54' W 008°28'0 0.0
2018-May-15 08:14N 51°54' W 008°28'0 0.0
2018-May-15 07:50N 51°54' W 008°28'0 0.0
2018-May-15 07:26N 51°54' W 008°28'0 0.0
2018-May-15 06:26N 51°54' W 008°28'0 0.0
2018-May-15 05:56N 51°54' W 008°28'0 0.0
2018-May-15 05:02N 51°54' W 008°28'0 0.0
2018-May-15 04:56N 51°54' W 008°28'0 0.0
2018-May-15 04:11N 51°54' W 008°28'0 0.0
2018-May-15 01:53N 51°54' W 008°28'0 0.0
2018-May-15 01:23N 51°54' W 008°28'0 0.0
2018-May-15 00:59N 51°54' W 008°28'0 0.0
2018-May-15 00:29N 51°54' W 008°28'0 0.0
2018-May-14 23:59N 51°54' W 008°28'0 0.0
2018-May-14 23:29N 51°54' W 008°28'0 0.0
2018-May-14 22:59N 51°54' W 008°28'0 0.0
2018-May-14 22:29N 51°54' W 008°28'0 0.0
2018-May-14 21:59N 51°54' W 008°28'0 0.0
2018-May-14 21:29N 51°54' W 008°28'0 0.0
2018-May-14 20:59N 51°54' W 008°28'0 0.0
2018-May-14 20:26N 51°54' W 008°28'0 0.0
2018-May-14 19:56N 51°54' W 008°28'0 0.0
2018-May-14 19:08N 51°54' W 008°28'0 0.0
2018-May-14 18:50N 51°54' W 008°28'0 0.0
2018-May-14 18:26N 51°54' W 008°28'0 0.0
2018-May-14 17:56N 51°54' W 008°28'0 0.0
2018-May-14 16:11N 51°54' W 008°28'0 0.0
2018-May-14 15:50N 51°54' W 008°28'0 0.0
2018-May-14 14:08N 51°54' W 008°28'  
Track history (hours):
 
Tides and Currents Weather Stations Pressure Air Temp Water Temp Dewpoint Dewpoint Depression Visibility Wind Speed Wind Dir Waves Ship Positions

Lord Nelson (United Kingdom)

Ship's website: http://www.jst.org.uk/

Last reported at 2018-May-24 13:00 UTC. Time now 2018-May-24 15:58 UTC.
Position N 53°54' W 004°48'.

Length 54.7 m; beam 9 m; draft 4.1 m.

Type: Sailing vessel. MMSI: 232003690.

Wind from 060 at 19 knots

Barometer 1023.2 mb
Air temperature 12.0 ° C
Visibility: greater than 5.4 NM
Dewpoint 9.2 ° C

Date/timePositionNaut miles runAvg speedWind from/ knotsBaromVisibWave heightAir tempDewpointWater temp
2018-May-24 13:00N 53°54' W 004°48'   060 / 191023.2 5.4 12.0 9.2
2018-May-21 17:23N 54°11' W 005°01'3 7.4
2018-May-21 17:00N 54°14' W 005°04'3 7.1
2018-May-21 16:30N 54°17' W 005°07'4 7.2
2018-May-21 16:01N 54°20' W 005°10'4 7.2
2018-May-21 15:30N 54°23' W 005°13'3 6.9
2018-May-21 15:01N 54°26' W 005°15'4 7.3
2018-May-21 14:30N 54°29' W 005°19'4 8.0
2018-May-21 14:01N 54°33' W 005°22'4 8.3
2018-May-21 13:30N 54°36' W 005°25'4 8.1
2018-May-21 13:01N 54°40' W 005°27'3 6.8
2018-May-21 12:30N 54°43' W 005°31'4 7.4
2018-May-21 12:00N 54°41' W 005°38'3 5.8
2018-May-21 11:30N 54°41' W 005°43'1 2.3
2018-May-21 11:00N 54°41' W 005°44'1 2.5
2018-May-21 10:30N 54°41' W 005°47'2 3.4
2018-May-21 10:00N 54°40' W 005°49'3 6.6
2018-May-21 09:30N 54°38' W 005°53'2 3.9
2018-May-21 09:00N 54°36' W 005°55'0 0.0
2018-May-21 08:30N 54°36' W 005°55'0 0.0
2018-May-21 08:00N 54°36' W 005°55'0 0.0
2018-May-21 07:30N 54°36' W 005°55'0 0.0
2018-May-21 07:00N 54°36' W 005°55'0 0.0
2018-May-21 06:30N 54°36' W 005°55'0 0.0
2018-May-21 06:00N 54°36' W 005°55'0 0.0
2018-May-21 05:30N 54°36' W 005°55'0 0.0
2018-May-21 05:00N 54°36' W 005°55'0 0.0
2018-May-21 04:30N 54°36' W 005°55'0 0.0
2018-May-21 04:00N 54°36' W 005°55'0 0.0
2018-May-21 03:30N 54°36' W 005°55'0 0.0
2018-May-21 03:00N 54°36' W 005°55'0 0.0
2018-May-21 02:30N 54°36' W 005°55'0 0.0
2018-May-21 02:00N 54°36' W 005°55'0 0.0
2018-May-21 01:30N 54°36' W 005°55'0 0.0
2018-May-21 01:00N 54°36' W 005°55'0 0.0
2018-May-21 00:30N 54°36' W 005°55'0 0.0
2018-May-21 00:00N 54°36' W 005°55'0 0.0
2018-May-20 23:30N 54°36' W 005°55'0 0.0
2018-May-20 22:57N 54°36' W 005°55'0 0.0
2018-May-20 22:30N 54°36' W 005°55'0 0.0
2018-May-20 22:00N 54°36' W 005°55'0 0.0
2018-May-20 21:27N 54°36' W 005°55'0 0.0
2018-May-20 21:00N 54°36' W 005°55'0 0.0
2018-May-20 20:30N 54°36' W 005°55'0 0.0
2018-May-20 19:57N 54°36' W 005°55'0 0.0
2018-May-20 19:30N 54°36' W 005°55'0 0.0
2018-May-20 19:00N 54°36' W 005°55'0 0.0
2018-May-20 18:30N 54°36' W 005°55'0 0.0
2018-May-20 17:57N 54°36' W 005°55'0 0.0
2018-May-20 17:30N 54°36' W 005°55'0 0.0
2018-May-20 17:00N 54°36' W 005°55'0 0.0
2018-May-20 16:30N 54°36' W 005°55'0 0.0
2018-May-20 16:00N 54°36' W 005°55'0 0.0
2018-May-20 15:30N 54°36' W 005°55'0 0.0
2018-May-20 14:57N 54°36' W 005°55'0 0.0
2018-May-20 14:30N 54°36' W 005°55'0 0.0
2018-May-20 14:00N 54°36' W 005°55'0 0.0
2018-May-20 13:29N 54°36' W 005°55'0 0.0
2018-May-20 13:00N 54°36' W 005°55'0 0.0
2018-May-20 12:30N 54°36' W 005°55'0 0.0
2018-May-20 12:00N 54°36' W 005°55'0 0.0
2018-May-20 11:29N 54°36' W 005°55'0 0.0
2018-May-20 10:59N 54°36' W 005°55'0 0.0
2018-May-20 10:29N 54°36' W 005°55'0 0.0
2018-May-20 09:59N 54°36' W 005°55'0 0.0
2018-May-20 09:29N 54°36' W 005°55'0 0.0
2018-May-20 08:59N 54°36' W 005°55'0 0.0
2018-May-20 08:29N 54°36' W 005°55'0 0.0
2018-May-20 07:59N 54°36' W 005°55'0 0.0
2018-May-20 07:29N 54°36' W 005°55'0 0.0
2018-May-20 06:59N 54°36' W 005°55'0 0.0
2018-May-20 06:29N 54°36' W 005°55'0 0.0
2018-May-20 05:59N 54°36' W 005°55'0 0.0
2018-May-20 05:29N 54°36' W 005°55'0 0.0
2018-May-20 04:59N 54°36' W 005°55'0 0.0
2018-May-20 04:29N 54°36' W 005°55'0 0.0
2018-May-20 03:56N 54°36' W 005°55'0 0.0
2018-May-20 03:29N 54°36' W 005°55'0 0.0
2018-May-20 02:59N 54°36' W 005°55'0 0.0
2018-May-20 02:29N 54°36' W 005°55'0 0.0
2018-May-20 01:59N 54°36' W 005°55'0 0.0
2018-May-20 01:29N 54°36' W 005°55'0 0.0
2018-May-20 00:59N 54°36' W 005°55'0 0.0
2018-May-20 00:29N 54°36' W 005°55'0 0.0
2018-May-19 23:59N 54°36' W 005°55'0 0.0
2018-May-19 23:29N 54°36' W 005°55'0 0.0
2018-May-19 22:59N 54°36' W 005°55'0 0.0
2018-May-19 22:29N 54°36' W 005°55'0 0.0
2018-May-19 21:59N 54°36' W 005°55'0 0.0
2018-May-19 21:26N 54°36' W 005°55'0 0.0
2018-May-19 20:56N 54°36' W 005°55'0 0.0
2018-May-19 20:29N 54°36' W 005°55'0 0.0
2018-May-19 19:59N 54°36' W 005°55'0 0.0
2018-May-19 19:29N 54°36' W 005°55'0 0.0
2018-May-19 18:59N 54°36' W 005°55'0 0.0
2018-May-19 18:29N 54°36' W 005°55'0 0.0
2018-May-19 17:59N 54°36' W 005°55'0 0.0
2018-May-19 17:29N 54°36' W 005°55'0 0.0
2018-May-19 16:59N 54°36' W 005°55'0 0.0
2018-May-19 16:26N 54°36' W 005°55'0 0.0
2018-May-19 15:59N 54°36' W 005°55'0 0.0
2018-May-19 15:29N 54°36' W 005°55'0 0.0
2018-May-19 14:44N 54°36' W 005°55'0 0.0
2018-May-19 14:29N 54°36' W 005°55'0 0.0
2018-May-19 13:59N 54°36' W 005°55'0 0.0
2018-May-19 13:29N 54°36' W 005°55'0 0.0
2018-May-19 12:59N 54°36' W 005°55'0 0.0
2018-May-19 12:29N 54°36' W 005°55'0 0.0
2018-May-19 11:59N 54°36' W 005°55'0 0.0
2018-May-19 11:29N 54°36' W 005°55'0 0.0
2018-May-19 10:59N 54°36' W 005°55'0 0.0
2018-May-19 10:29N 54°36' W 005°55'0 0.0
2018-May-19 09:59N 54°36' W 005°55'0 0.0
2018-May-19 09:29N 54°36' W 005°55'0 0.0
2018-May-19 08:59N 54°36' W 005°55'0 0.0
2018-May-19 08:29N 54°36' W 005°55'0 0.0
2018-May-19 07:59N 54°36' W 005°55'0 0.0
2018-May-19 07:29N 54°36' W 005°55'0 0.0
2018-May-19 06:59N 54°36' W 005°55'0 0.0
2018-May-19 06:29N 54°36' W 005°55'0 0.0
2018-May-19 05:59N 54°36' W 005°55'0 0.0
2018-May-19 05:26N 54°36' W 005°55'0 0.0
2018-May-19 04:59N 54°36' W 005°55'0 0.0
2018-May-19 04:22N 54°36' W 005°55'0 0.0
2018-May-19 03:55N 54°36' W 005°55'0 0.0
2018-May-19 03:28N 54°36' W 005°55'0 0.0
2018-May-19 02:59N 54°36' W 005°55'0 0.0
2018-May-19 02:25N 54°36' W 005°55'0 0.0
2018-May-19 01:55N 54°36' W 005°55'0 0.0
2018-May-19 01:28N 54°36' W 005°55'0 0.0
2018-May-19 00:55N 54°36' W 005°55'0 0.0
2018-May-19 00:25N 54°36' W 005°55'0 0.0
2018-May-18 23:55N 54°36' W 005°55'0 0.0
2018-May-18 23:28N 54°36' W 005°55'0 0.0
2018-May-18 22:55N 54°36' W 005°55'0 0.0
2018-May-18 22:25N 54°36' W 005°55'0 0.0
2018-May-18 21:58N 54°36' W 005°55'0 0.0
2018-May-18 21:28N 54°36' W 005°55'0 0.0
2018-May-18 20:55N 54°36' W 005°55'0 0.0
2018-May-18 20:28N 54°36' W 005°55'0 0.0
2018-May-18 19:58N 54°36' W 005°55'0 0.0
2018-May-18 19:28N 54°36' W 005°55'0 0.0
2018-May-18 18:58N 54°36' W 005°55'0 0.0
2018-May-18 18:28N 54°36' W 005°55'0 0.0
2018-May-18 17:58N 54°36' W 005°55'0 0.0
2018-May-18 17:25N 54°36' W 005°55'0 0.0
2018-May-18 16:58N 54°36' W 005°55'0 0.0
2018-May-18 16:28N 54°36' W 005°55'0 0.0
2018-May-18 15:58N 54°36' W 005°55'0 0.0
2018-May-18 15:28N 54°36' W 005°55'0 0.0
2018-May-18 14:55N 54°36' W 005°55'0 0.0
2018-May-18 14:28N 54°36' W 005°55'0 0.0
2018-May-18 13:58N 54°36' W 005°55'0 0.0
2018-May-18 13:28N 54°36' W 005°55'0 0.0
2018-May-18 12:58N 54°36' W 005°55'0 0.0
2018-May-18 12:28N 54°36' W 005°55'0 0.0
2018-May-18 11:58N 54°36' W 005°55'0 0.0
2018-May-18 11:28N 54°36' W 005°55'0 0.0
2018-May-18 11:00N 54°36' W 005°55'0 0.1
2018-May-18 10:30N 54°36' W 005°55'2 4.6
2018-May-18 09:58N 54°38' W 005°52'3 6.9
2018-May-18 09:30N 54°41' W 005°49'4 7.7
2018-May-18 09:00N 54°42' W 005°43'4 7.5
2018-May-18 08:30N 54°45' W 005°38'4 7.1
2018-May-18 08:00N 54°47' W 005°34'1 2.0
2018-May-18 07:30N 54°47' W 005°32'3 5.2
2018-May-18 07:00N 54°44' W 005°33'1 2.3
2018-May-18 06:30N 54°44' W 005°31'1 2.7
2018-May-18 06:01N 54°44' W 005°29'1 1.9
2018-May-18 05:30N 54°44' W 005°28'3 5.6
2018-May-18 05:00N 54°41' W 005°25'3 6.4
2018-May-18 04:30N 54°39' W 005°22'4 7.0
2018-May-18 04:00N 54°35' W 005°19'4 7.6
2018-May-18 03:30N 54°32' W 005°17'4 7.4
2018-May-18 03:00N 54°28' W 005°16'4 7.7
2018-May-18 02:30N 54°24' W 005°16'4 7.7
2018-May-18 02:00N 54°21' W 005°17'4251.9
2018-May-18 02:00N 54°18' W 005°12'3 6.3 1025.727.0 9.6 7.5 9.0
2018-May-18 01:30N 54°17' W 005°17'4 7.2
2018-May-18 01:00N 54°13' W 005°18'4 7.1
2018-May-18 00:30N 54°10' W 005°19'4 7.3
2018-May-18 00:00N 54°06' W 005°20'4 7.1
2018-May-17 23:30N 54°03' W 005°21'4 7.4
2018-May-17 23:00N 53°59' W 005°22'5 7.5
2018-May-17 22:23N 53°55' W 005°23'3 7.7
2018-May-17 22:00N 53°52' W 005°24'4 7.8
2018-May-17 21:30N 53°48' W 005°25'4 7.8
2018-May-17 20:57N 53°44' W 005°27'5 7.7
2018-May-17 20:17N 53°39' W 005°28'2 7.4
2018-May-17 20:00N 53°37' W 005°29'6 6.8
2018-May-17 19:05N 53°30' W 005°30'2 6.0
2018-May-17 18:47N 53°29' W 005°30'2 5.7
2018-May-17 18:29N 53°27' W 005°31'2 5.2
2018-May-17 18:00N 53°25' W 005°33'3 5.3
2018-May-17 17:30N 53°22' W 005°33'4 5.0
2018-May-17 16:44N 53°18' W 005°34'1 4.8
2018-May-17 16:28N 53°17' W 005°34'3 4.6
2018-May-17 15:53N 53°14' W 005°34'2 4.1
2018-May-17 15:30N 53°13' W 005°34'2 4.1
2018-May-17 15:00N 53°11' W 005°34'2 3.9
2018-May-17 14:30N 53°09' W 005°34'2 4.0
2018-May-17 14:00N 53°07' W 005°34'2 4.6
2018-May-17 13:28N 53°04' W 005°34'2 5.1
2018-May-17 13:00N 53°02' W 005°35'3 5.2
2018-May-17 12:30N 52°59' W 005°36'3 6.2
2018-May-17 12:00N 52°56' W 005°36'4 7.2
2018-May-17 11:30N 52°53' W 005°37'4 8.2
2018-May-17 11:00N 52°49' W 005°39'3 6.2
2018-May-17 10:30N 52°46' W 005°39'2 3.9
2018-May-17 10:00N 52°44' W 005°40'3 4.8
2018-May-17 09:28N 52°41' W 005°40'60 1.9
2018-May-16 02:00N 51°48' W 006°24'11 4.0 360 / 171028.610.8 10.4 7.510.3
2018-May-15 23:15N 51°55' W 006°37'1 5.0
2018-May-15 23:00N 51°56' W 006°39'2 5.0
2018-May-15 22:30N 51°56' W 006°43'3 5.1
2018-May-15 22:00N 51°56' W 006°47'2 4.4
2018-May-15 21:30N 51°56' W 006°51'2 4.7
2018-May-15 21:00N 51°56' W 006°54'2 4.9
2018-May-15 20:30N 51°55' W 006°58'3 6.4
2018-May-15 20:00N 51°55' W 007°04'4 7.1
2018-May-15 19:30N 51°55' W 007°09'4 7.1
2018-May-15 19:00N 51°55' W 007°15'3 6.8
2018-May-15 18:30N 51°54' W 007°20'3 6.7
2018-May-15 18:00N 51°53' W 007°26'3 6.2
2018-May-15 17:30N 51°52' W 007°30'3 6.5
2018-May-15 17:00N 51°51' W 007°35'3 5.6
2018-May-15 16:30N 51°50' W 007°39'3 6.0
2018-May-15 16:00N 51°49' W 007°44'3 6.8
2018-May-15 15:30N 51°48' W 007°49'2 5.0
2018-May-15 15:00N 51°47' W 007°53'2 3.8
2018-May-15 14:30N 51°47' W 007°56'4 7.2
2018-May-15 14:00N 51°46' W 008°02'4 7.1
2018-May-15 13:30N 51°45' W 008°07'3 6.9
2018-May-15 13:00N 51°46' W 008°13'3 5.7
2018-May-15 12:30N 51°48' W 008°16'3 5.6
2018-May-15 12:00N 51°51' W 008°17'2 4.0
2018-May-15 11:30N 51°52' W 008°20'3 7.0
2018-May-15 11:00N 51°54' W 008°24'2 3.5
2018-May-15 10:26N 51°54' W 008°28'0 0.0
2018-May-15 09:59N 51°54' W 008°28'0 0.0
2018-May-15 09:23N 51°54' W 008°28'0 0.0
2018-May-15 08:56N 51°54' W 008°28'0 0.0
2018-May-15 08:14N 51°54' W 008°28'0 0.0
2018-May-15 07:50N 51°54' W 008°28'0 0.0
2018-May-15 07:26N 51°54' W 008°28'0 0.0
2018-May-15 06:26N 51°54' W 008°28'0 0.0
2018-May-15 05:56N 51°54' W 008°28'0 0.0
2018-May-15 05:02N 51°54' W 008°28'0 0.0
2018-May-15 04:56N 51°54' W 008°28'0 0.0
2018-May-15 04:11N 51°54' W 008°28'0 0.0
2018-May-15 01:53N 51°54' W 008°28'0 0.0
2018-May-15 01:23N 51°54' W 008°28'0 0.0
2018-May-15 00:59N 51°54' W 008°28'0 0.0
2018-May-15 00:29N 51°54' W 008°28'0 0.0
2018-May-14 23:59N 51°54' W 008°28'0 0.0
2018-May-14 23:29N 51°54' W 008°28'0 0.0
2018-May-14 22:59N 51°54' W 008°28'0 0.0
2018-May-14 22:29N 51°54' W 008°28'0 0.0
2018-May-14 21:59N 51°54' W 008°28'0 0.0
2018-May-14 21:29N 51°54' W 008°28'0 0.0
2018-May-14 20:59N 51°54' W 008°28'0 0.0
2018-May-14 20:26N 51°54' W 008°28'0 0.0
2018-May-14 19:56N 51°54' W 008°28'0 0.0
2018-May-14 19:08N 51°54' W 008°28'0 0.0
2018-May-14 18:50N 51°54' W 008°28'0 0.0
2018-May-14 18:26N 51°54' W 008°28'0 0.0
2018-May-14 17:56N 51°54' W 008°28'0 0.0
2018-May-14 16:11N 51°54' W 008°28'0 0.0
2018-May-14 15:50N 51°54' W 008°28'0 0.0
2018-May-14 14:08N 51°54' W 008°28'  

Dump ship's entire track history